Time;durP1;ratioP1;P1;durP2;ratioP2;P2;SDS_P1;SDS_P2;PMS_P1;PMS_P2;Temp;Humidity;BMP_temperature;BMP_pressure;BME280_temperature;BME280_humidity;BME280_pressure;Samples;Min_cycle;Max_cycle;Signal;HPM_P1;HPM_P2
2023/04/19 00:01:40;;;;;;;3.30;2.38;;;;;;;;;;5054444;28;20023;-67
2023/04/19 00:04:07;;;;;;;3.63;2.30;;;;;;;;;;5053837;28;20081;-67
2023/04/19 00:06:34;;;;;;;2.88;2.22;;;;;;;;;;5053572;28;20039;-67
2023/04/19 00:09:00;;;;;;;3.65;2.38;;;;;;;;;;5054172;28;20029;-67
2023/04/19 00:11:27;;;;;;;3.17;2.22;;;;;;;;;;5053885;28;20031;-66
2023/04/19 00:13:53;;;;;;;2.30;2.10;;;;;;;;;;5053685;28;20031;-67
2023/04/19 00:16:20;;;;;;;3.33;2.40;;;;;;;;;;5053839;28;20051;-66
2023/04/19 00:18:47;;;;;;;2.28;1.90;;;;;;;;;;5053185;28;20489;-67
2023/04/19 00:21:13;;;;;;;2.78;2.10;;;;;;;;;;5053426;28;20021;-67
2023/04/19 00:23:40;;;;;;;2.90;2.42;;;;;;;;;;5053763;28;20498;-67
2023/04/19 00:26:06;;;;;;;2.45;2.08;;;;;;;;;;5053465;28;20029;-67
2023/04/19 00:28:34;;;;;;;2.42;1.80;;;;;;;;;;5052679;28;20044;-66
2023/04/19 00:31:00;;;;;;;2.33;2.10;;;;;;;;;;5053258;28;20077;-66
2023/04/19 00:33:26;;;;;;;2.70;2.10;;;;;;;;;;5054021;28;20032;-67
2023/04/19 00:35:52;;;;;;;3.38;2.15;;;;;;;;;;5052751;28;20025;-67
2023/04/19 00:38:19;;;;;;;4.97;2.30;;;;;;;;;;5052868;28;20473;-67
2023/04/19 00:40:46;;;;;;;2.30;2.08;;;;;;;;;;5053324;28;20021;-66
2023/04/19 00:43:17;;;;;;;2.03;1.77;;;;;;;;;;5052759;28;20027;-66
2023/04/19 00:45:44;;;;;;;4.72;2.10;;;;;;;;;;5052915;28;20405;-67
2023/04/19 00:48:11;;;;;;;2.80;2.15;;;;;;;;;;5052705;28;20021;-66
2023/04/19 00:50:37;;;;;;;3.25;2.15;;;;;;;;;;5052451;28;20452;-66
2023/04/19 00:53:04;;;;;;;5.05;2.03;;;;;;;;;;5052752;28;20074;-67
2023/04/19 00:55:30;;;;;;;4.75;2.40;;;;;;;;;;5052791;28;20025;-67
2023/04/19 00:57:56;;;;;;;3.03;2.30;;;;;;;;;;5053503;28;20023;-66
2023/04/19 01:00:23;;;;;;;2.35;1.88;;;;;;;;;;5052578;28;20033;-67
2023/04/19 01:02:49;;;;;;;3.25;2.13;;;;;;;;;;5052756;28;20490;-67
2023/04/19 01:05:16;;;;;;;2.22;1.95;;;;;;;;;;5052198;28;20484;-67
2023/04/19 01:07:42;;;;;;;6.43;2.00;;;;;;;;;;5052655;28;20035;-66
2023/04/19 01:10:09;;;;;;;2.30;2.10;;;;;;;;;;5052820;28;20029;-67
2023/04/19 01:12:35;;;;;;;2.75;2.15;;;;;;;;;;5052761;28;20393;-66
2023/04/19 01:15:02;;;;;;;3.20;2.20;;;;;;;;;;5052460;28;20506;-66
2023/04/19 01:17:29;;;;;;;2.85;2.13;;;;;;;;;;5052179;28;20021;-65
2023/04/19 01:20:07;;;;;;;2.97;2.33;;;;;;;;;;5051875;28;20025;-67
2023/04/19 01:22:36;;;;;;;2.30;2.10;;;;;;;;;;5052208;28;20482;-66
2023/04/19 01:25:03;;;;;;;4.55;2.38;;;;;;;;;;5051438;28;20450;-67
2023/04/19 01:27:30;;;;;;;2.80;2.10;;;;;;;;;;5052383;28;20046;-67
2023/04/19 01:29:56;;;;;;;3.00;2.40;;;;;;;;;;5050975;28;20045;-67
2023/04/19 01:32:25;;;;;;;3.38;2.60;;;;;;;;;;5051813;28;20025;-66
2023/04/19 01:34:51;;;;;;;3.58;2.70;;;;;;;;;;5051960;28;20039;-67
2023/04/19 01:37:18;;;;;;;2.72;2.08;;;;;;;;;;5052249;28;20029;-67
2023/04/19 01:39:44;;;;;;;2.83;2.25;;;;;;;;;;5052404;28;20452;-67
2023/04/19 01:42:11;;;;;;;3.03;2.28;;;;;;;;;;5052299;28;20024;-67
2023/04/19 01:44:37;;;;;;;3.90;2.58;;;;;;;;;;5051921;28;20025;-67
2023/04/19 01:47:04;;;;;;;3.22;2.30;;;;;;;;;;5052145;28;20025;-67
2023/04/19 01:49:30;;;;;;;3.05;2.15;;;;;;;;;;5051988;28;20393;-67
2023/04/19 01:51:57;;;;;;;2.70;2.50;;;;;;;;;;5056375;28;20021;-67
2023/04/19 01:54:23;;;;;;;3.20;2.30;;;;;;;;;;5056488;28;20032;-66
2023/04/19 01:56:49;;;;;;;3.38;2.75;;;;;;;;;;5055847;28;20511;-66
2023/04/19 01:59:16;;;;;;;3.15;2.30;;;;;;;;;;5056227;28;20099;-66
2023/04/19 02:01:42;;;;;;;3.22;2.20;;;;;;;;;;5056032;28;20029;-67
2023/04/19 02:04:09;;;;;;;3.00;2.50;;;;;;;;;;5055861;28;20025;-66
2023/04/19 02:06:35;;;;;;;6.57;2.55;;;;;;;;;;5055620;28;20134;-67
2023/04/19 02:09:02;;;;;;;5.47;2.65;;;;;;;;;;5056117;28;20043;-66
2023/04/19 02:11:28;;;;;;;3.70;2.60;;;;;;;;;;5055749;28;20017;-67
2023/04/19 02:13:55;;;;;;;3.40;2.50;;;;;;;;;;5055796;28;20500;-67
2023/04/19 02:16:21;;;;;;;2.67;2.30;;;;;;;;;;5055712;28;20016;-67
2023/04/19 02:18:48;;;;;;;3.33;2.10;;;;;;;;;;5055907;28;20384;-67
2023/04/19 02:21:14;;;;;;;2.47;2.28;;;;;;;;;;5056018;28;20024;-67
2023/04/19 02:23:40;;;;;;;2.95;2.30;;;;;;;;;;5055670;28;20416;-66
2023/04/19 02:26:07;;;;;;;2.65;2.30;;;;;;;;;;5055292;28;20050;-66
2023/04/19 02:28:33;;;;;;;2.25;2.05;;;;;;;;;;5055460;28;20055;-66
2023/04/19 02:31:03;;;;;;;4.43;2.58;;;;;;;;;;5055631;28;20028;-66
2023/04/19 02:33:29;;;;;;;2.97;2.13;;;;;;;;;;5055623;28;20025;-67
2023/04/19 02:35:56;;;;;;;4.15;2.30;;;;;;;;;;5055773;28;20025;-67
2023/04/19 02:38:22;;;;;;;2.63;2.35;;;;;;;;;;5055503;28;20016;-67
2023/04/19 02:40:48;;;;;;;3.30;2.40;;;;;;;;;;5055105;28;20017;-67
2023/04/19 02:43:15;;;;;;;3.60;2.10;;;;;;;;;;5055353;28;20028;-67
2023/04/19 02:45:41;;;;;;;3.47;2.50;;;;;;;;;;5055383;28;20028;-66
2023/04/19 02:48:07;;;;;;;5.10;2.47;;;;;;;;;;5055283;28;20032;-67
2023/04/19 02:50:37;;;;;;;2.38;2.15;;;;;;;;;;5054590;28;20039;-67
2023/04/19 02:53:03;;;;;;;2.70;2.10;;;;;;;;;;5055658;28;20021;-67
2023/04/19 02:55:29;;;;;;;3.92;2.33;;;;;;;;;;5055330;28;20033;-67
2023/04/19 02:57:56;;;;;;;2.92;2.47;;;;;;;;;;5055229;28;20392;-67
2023/04/19 03:00:22;;;;;;;5.32;3.03;;;;;;;;;;5054858;28;20021;-67
2023/04/19 03:02:48;;;;;;;2.92;2.10;;;;;;;;;;5054654;28;20037;-67
2023/04/19 03:05:15;;;;;;;3.72;2.40;;;;;;;;;;5054821;28;20031;-67
2023/04/19 03:07:41;;;;;;;4.88;2.83;;;;;;;;;;5054849;28;20032;-66
2023/04/19 03:10:08;;;;;;;4.38;2.65;;;;;;;;;;5054443;28;20037;-66
2023/04/19 03:12:34;;;;;;;5.00;2.92;;;;;;;;;;5054522;28;20025;-67
2023/04/19 03:15:00;;;;;;;3.63;2.60;;;;;;;;;;5054110;28;20025;-67
2023/04/19 03:17:27;;;;;;;6.05;2.55;;;;;;;;;;5054427;28;20025;-67
2023/04/19 03:19:53;;;;;;;2.45;2.25;;;;;;;;;;5054587;28;20039;-67
2023/04/19 03:22:19;;;;;;;2.78;2.50;;;;;;;;;;5054959;28;20517;-67
2023/04/19 03:24:46;;;;;;;2.72;2.42;;;;;;;;;;5054405;28;20032;-66
2023/04/19 03:27:12;;;;;;;3.70;2.58;;;;;;;;;;5054559;28;20027;-67
2023/04/19 03:29:38;;;;;;;7.03;2.83;;;;;;;;;;5053950;28;20431;-66
2023/04/19 03:32:05;;;;;;;4.95;3.20;;;;;;;;;;5054355;28;20116;-67
2023/04/19 03:34:31;;;;;;;4.82;2.70;;;;;;;;;;5054393;28;20028;-67
2023/04/19 03:36:57;;;;;;;4.38;2.63;;;;;;;;;;5054368;28;20033;-67
2023/04/19 03:39:24;;;;;;;4.63;2.28;;;;;;;;;;5053949;28;20017;-66
2023/04/19 03:41:50;;;;;;;3.17;2.58;;;;;;;;;;5054044;28;20025;-66
2023/04/19 03:44:17;;;;;;;2.50;2.30;;;;;;;;;;5053915;28;20091;-67
2023/04/19 03:46:45;;;;;;;4.55;2.47;;;;;;;;;;5053623;28;20082;-67
2023/04/19 03:49:11;;;;;;;3.97;2.50;;;;;;;;;;5053792;28;20037;-67
2023/04/19 03:51:37;;;;;;;2.63;2.40;;;;;;;;;;5053825;28;20032;-67
2023/04/19 03:54:04;;;;;;;3.45;2.47;;;;;;;;;;5054411;28;20045;-67
2023/04/19 03:56:30;;;;;;;4.88;3.10;;;;;;;;;;5054291;28;20032;-67
2023/04/19 03:58:56;;;;;;;3.35;2.67;;;;;;;;;;5054598;28;20362;-66
2023/04/19 04:01:23;;;;;;;3.40;2.60;;;;;;;;;;5053800;28;20036;-66
2023/04/19 04:03:49;;;;;;;6.03;2.60;;;;;;;;;;5054222;28;20031;-67
2023/04/19 04:06:15;;;;;;;4.22;2.60;;;;;;;;;;5054388;28;20017;-66
2023/04/19 04:08:42;;;;;;;2.60;2.38;;;;;;;;;;5052317;28;20017;-67
2023/04/19 04:11:08;;;;;;;7.07;2.75;;;;;;;;;;5053550;28;20035;-67
2023/04/19 04:13:35;;;;;;;3.40;2.70;;;;;;;;;;5052584;28;20025;-68
2023/04/19 04:16:01;;;;;;;3.63;2.50;;;;;;;;;;5052233;28;20036;-66
2023/04/19 04:18:27;;;;;;;3.85;2.88;;;;;;;;;;5053509;28;20025;-67
2023/04/19 04:20:54;;;;;;;3.22;2.55;;;;;;;;;;5053516;28;20390;-66
2023/04/19 04:23:20;;;;;;;5.13;3.38;;;;;;;;;;5053693;28;20032;-67
2023/04/19 04:25:47;;;;;;;3.83;3.05;;;;;;;;;;5053550;28;20017;-67
2023/04/19 04:28:13;;;;;;;4.03;2.90;;;;;;;;;;5052653;28;20478;-66
2023/04/19 04:30:41;;;;;;;4.63;3.05;;;;;;;;;;5052829;28;20063;-67
2023/04/19 04:33:10;;;;;;;3.97;3.17;;;;;;;;;;5053461;28;20031;-67
2023/04/19 04:35:37;;;;;;;4.32;2.83;;;;;;;;;;5053460;28;20474;-67
2023/04/19 04:38:04;;;;;;;3.55;2.72;;;;;;;;;;5053249;28;20021;-66
2023/04/19 04:40:31;;;;;;;3.55;2.80;;;;;;;;;;5053065;28;20119;-66
2023/04/19 04:42:59;;;;;;;3.55;2.83;;;;;;;;;;5053153;28;20020;-66
2023/04/19 04:45:27;;;;;;;3.08;2.78;;;;;;;;;;5052939;28;20028;-67
2023/04/19 04:47:54;;;;;;;3.78;2.95;;;;;;;;;;5053283;28;20511;-66
2023/04/19 04:50:20;;;;;;;4.18;2.80;;;;;;;;;;5052804;28;20029;-67
2023/04/19 04:52:46;;;;;;;4.25;2.97;;;;;;;;;;5052817;28;20036;-67
2023/04/19 04:55:13;;;;;;;3.72;3.10;;;;;;;;;;5052496;28;20027;-67
2023/04/19 04:57:39;;;;;;;5.70;2.75;;;;;;;;;;5052443;28;20025;-67
2023/04/19 05:00:06;;;;;;;5.13;3.10;;;;;;;;;;5052308;28;20029;-67
2023/04/19 05:02:32;;;;;;;6.15;2.95;;;;;;;;;;5052779;28;20033;-66
2023/04/19 05:04:58;;;;;;;6.45;3.08;;;;;;;;;;5052813;28;20028;-66
2023/04/19 05:07:25;;;;;;;3.67;3.08;;;;;;;;;;5052267;28;20027;-66
2023/04/19 05:09:51;;;;;;;6.57;3.13;;;;;;;;;;5052427;28;20453;-66
2023/04/19 05:12:17;;;;;;;3.97;3.08;;;;;;;;;;5052877;28;20025;-66
2023/04/19 05:14:44;;;;;;;8.13;3.08;;;;;;;;;;5052711;28;20150;-67
2023/04/19 05:17:10;;;;;;;6.65;3.42;;;;;;;;;;5052288;28;20035;-67
2023/04/19 05:19:36;;;;;;;8.95;3.45;;;;;;;;;;5052411;28;20029;-67
2023/04/19 05:22:03;;;;;;;7.47;3.30;;;;;;;;;;5052562;28;20029;-66
2023/04/19 05:24:29;;;;;;;5.93;2.92;;;;;;;;;;5051740;28;20386;-66
2023/04/19 05:26:55;;;;;;;7.53;3.40;;;;;;;;;;5051943;28;20033;-66
2023/04/19 05:29:22;;;;;;;3.80;3.20;;;;;;;;;;5051827;28;20045;-66
2023/04/19 05:31:48;;;;;;;4.00;3.00;;;;;;;;;;5052810;28;20025;-64
2023/04/19 05:34:14;;;;;;;6.25;3.22;;;;;;;;;;5052708;28;20020;-66
2023/04/19 05:36:41;;;;;;;4.47;3.47;;;;;;;;;;5052564;28;20036;-66
2023/04/19 05:39:08;;;;;;;5.35;3.38;;;;;;;;;;5051651;28;20392;-66
2023/04/19 05:41:34;;;;;;;9.20;3.40;;;;;;;;;;5052597;28;20021;-66
2023/04/19 05:44:00;;;;;;;6.85;4.15;;;;;;;;;;5051969;28;20024;-66
2023/04/19 05:46:27;;;;;;;6.07;3.50;;;;;;;;;;5051986;28;20029;-66
2023/04/19 05:48:53;;;;;;;6.22;3.97;;;;;;;;;;5052043;28;20013;-65
2023/04/19 05:51:19;;;;;;;7.50;4.85;;;;;;;;;;5051599;28;20031;-66
2023/04/19 05:53:46;;;;;;;6.95;4.10;;;;;;;;;;5051433;28;20029;-66
2023/04/19 05:56:12;;;;;;;8.68;4.13;;;;;;;;;;5051684;28;20389;-65
2023/04/19 05:58:38;;;;;;;7.25;5.00;;;;;;;;;;5051870;28;20021;-66
2023/04/19 06:01:05;;;;;;;7.50;4.85;;;;;;;;;;5051672;28;20029;-66
2023/04/19 06:03:35;;;;;;;8.05;4.60;;;;;;;;;;5051448;28;20051;-66
2023/04/19 06:06:01;;;;;;;12.18;4.53;;;;;;;;;;5051805;28;20025;-65
2023/04/19 06:08:27;;;;;;;8.32;3.58;;;;;;;;;;5051615;28;20025;-66
2023/04/19 06:10:55;;;;;;;3.88;3.15;;;;;;;;;;5051498;28;20041;-66
2023/04/19 06:13:22;;;;;;;4.13;3.03;;;;;;;;;;5051314;28;20028;-66
2023/04/19 06:15:48;;;;;;;11.38;2.80;;;;;;;;;;5047575;28;20444;-66
2023/04/19 06:18:14;;;;;;;3.22;2.38;;;;;;;;;;5031746;28;20030;-66
2023/04/19 06:20:41;;;;;;;3.13;2.25;;;;;;;;;;5041855;28;20021;-66
2023/04/19 06:23:07;;;;;;;3.50;2.25;;;;;;;;;;5050717;28;20023;-68
2023/04/19 06:25:34;;;;;;;4.45;2.58;;;;;;;;;;5050863;28;20029;-66
2023/04/19 06:28:00;;;;;;;4.10;2.38;;;;;;;;;;5048124;28;20013;-67
2023/04/19 06:30:26;;;;;;;6.32;2.30;;;;;;;;;;5044757;28;20099;-66
2023/04/19 06:32:53;;;;;;;4.35;2.30;;;;;;;;;;5072738;28;20029;-66
2023/04/19 06:35:20;;;;;;;2.75;2.13;;;;;;;;;;5033315;28;20051;-66
2023/04/19 06:37:46;;;;;;;2.92;2.17;;;;;;;;;;5048297;28;20021;-67
2023/04/19 06:40:12;;;;;;;2.78;2.30;;;;;;;;;;5048373;28;20044;-67
2023/04/19 06:42:38;;;;;;;4.72;2.38;;;;;;;;;;5034121;28;20032;-67
2023/04/19 06:45:05;;;;;;;3.78;2.30;;;;;;;;;;5049260;28;20592;-67
2023/04/19 06:47:31;;;;;;;2.17;1.98;;;;;;;;;;5034949;28;20029;-67
2023/04/19 06:49:58;;;;;;;3.60;2.45;;;;;;;;;;5053776;28;20029;-66
2023/04/19 06:52:24;;;;;;;4.78;2.58;;;;;;;;;;5053813;28;20039;-67
2023/04/19 06:54:51;;;;;;;4.40;2.72;;;;;;;;;;5053699;28;20401;-67
2023/04/19 06:57:17;;;;;;;3.60;2.40;;;;;;;;;;5053065;28;20024;-67
2023/04/19 06:59:44;;;;;;;3.58;2.03;;;;;;;;;;5053690;28;20021;-66
2023/04/19 07:02:11;;;;;;;4.97;1.95;;;;;;;;;;5053482;28;20509;-67
2023/04/19 07:04:37;;;;;;;2.88;1.60;;;;;;;;;;5039396;28;20398;-67
2023/04/19 07:07:03;;;;;;;4.18;1.80;;;;;;;;;;5034289;28;20029;-66
2023/04/19 07:09:30;;;;;;;4.65;2.08;;;;;;;;;;5049104;28;20482;-67
2023/04/19 07:11:56;;;;;;;2.78;1.60;;;;;;;;;;5053220;28;20037;-67
2023/04/19 07:14:23;;;;;;;2.63;1.80;;;;;;;;;;5053431;28;20025;-67
2023/04/19 07:16:49;;;;;;;8.38;1.90;;;;;;;;;;5052880;28;20039;-67
2023/04/19 07:19:18;;;;;;;4.40;1.90;;;;;;;;;;5053528;28;20486;-67
2023/04/19 07:21:44;;;;;;;2.03;1.50;;;;;;;;;;5053687;28;20028;-67
2023/04/19 07:24:10;;;;;;;4.68;1.92;;;;;;;;;;5053343;28;20029;-67
2023/04/19 07:26:37;;;;;;;2.55;1.70;;;;;;;;;;5053379;28;20017;-67
2023/04/19 07:29:03;;;;;;;2.92;1.92;;;;;;;;;;5051954;28;20049;-68
2023/04/19 07:31:30;;;;;;;3.88;1.67;;;;;;;;;;5056593;28;20029;-68
2023/04/19 07:33:56;;;;;;;5.93;1.77;;;;;;;;;;5052946;28;20404;-67
2023/04/19 07:36:23;;;;;;;2.08;1.70;;;;;;;;;;5053194;28;20025;-67
2023/04/19 07:38:49;;;;;;;4.65;1.80;;;;;;;;;;5053304;28;20039;-65
2023/04/19 07:41:15;;;;;;;2.38;1.80;;;;;;;;;;5053402;28;20082;-67
2023/04/19 07:43:42;;;;;;;2.47;1.83;;;;;;;;;;5053284;28;20504;-67
2023/04/19 07:46:12;;;;;;;5.00;2.03;;;;;;;;;;5053010;28;20041;-67
2023/04/19 07:48:39;;;;;;;4.10;1.83;;;;;;;;;;5052837;28;20031;-67
2023/04/19 07:51:12;;;;;;;5.93;1.80;;;;;;;;;;5052745;28;20025;-68
2023/04/19 07:53:40;;;;;;;4.97;2.00;;;;;;;;;;5053042;28;20017;-67
2023/04/19 07:56:10;;;;;;;2.53;1.92;;;;;;;;;;5052754;28;20023;-67
2023/04/19 07:58:38;;;;;;;2.60;1.70;;;;;;;;;;5060362;28;20034;-65
2023/04/19 08:01:04;;;;;;;2.65;1.80;;;;;;;;;;5052824;28;20504;-65
2023/04/19 08:03:31;;;;;;;4.18;1.77;;;;;;;;;;5052960;28;20033;-67
2023/04/19 08:05:57;;;;;;;5.05;1.80;;;;;;;;;;5052361;28;20033;-65
2023/04/19 08:08:24;;;;;;;5.00;1.85;;;;;;;;;;5052728;28;20017;-65
2023/04/19 08:10:53;;;;;;;9.55;2.20;;;;;;;;;;5051450;28;20063;-65
2023/04/19 08:13:19;;;;;;;3.53;1.90;;;;;;;;;;5055653;28;20381;-65
2023/04/19 08:15:46;;;;;;;13.32;2.40;;;;;;;;;;5052660;28;20536;-65
2023/04/19 08:18:12;;;;;;;9.85;2.08;;;;;;;;;;5053058;28;20035;-65
2023/04/19 08:20:41;;;;;;;10.93;2.00;;;;;;;;;;5050830;28;20051;-63
2023/04/19 08:23:08;;;;;;;13.50;2.65;;;;;;;;;;5052769;28;20025;-66
2023/04/19 08:25:34;;;;;;;12.18;2.53;;;;;;;;;;5052601;28;20371;-65
2023/04/19 08:28:01;;;;;;;14.98;2.10;;;;;;;;;;5051940;28;20450;-65
2023/04/19 08:30:27;;;;;;;15.15;2.58;;;;;;;;;;5052223;28;20048;-66
2023/04/19 08:32:53;;;;;;;18.33;3.20;;;;;;;;;;5051869;28;20066;-65
2023/04/19 08:35:20;;;;;;;27.77;4.78;;;;;;;;;;5052049;28;20029;-66
2023/04/19 08:37:47;;;;;;;20.63;4.00;;;;;;;;;;5052499;28;20031;-65
2023/04/19 08:40:13;;;;;;;16.83;3.42;;;;;;;;;;5052061;28;20019;-65
2023/04/19 08:42:40;;;;;;;18.20;2.90;;;;;;;;;;5052617;28;20405;-65
2023/04/19 08:45:07;;;;;;;14.30;3.00;;;;;;;;;;5051166;28;20078;-65
2023/04/19 08:47:34;;;;;;;18.42;3.30;;;;;;;;;;5050823;28;20029;-66
2023/04/19 08:50:01;;;;;;;16.73;3.03;;;;;;;;;;5050241;28;20051;-66
2023/04/19 08:52:27;;;;;;;12.82;2.85;;;;;;;;;;5051715;28;20028;-65
2023/04/19 08:54:54;;;;;;;17.05;2.65;;;;;;;;;;5051491;28;20013;-66
2023/04/19 08:57:21;;;;;;;13.23;2.70;;;;;;;;;;5051968;28;20029;-66
2023/04/19 08:59:51;;;;;;;16.20;2.85;;;;;;;;;;5051836;28;20024;-66
2023/04/19 09:02:18;;;;;;;10.30;2.50;;;;;;;;;;5052646;28;20494;-66
2023/04/19 09:04:44;;;;;;;7.38;2.50;;;;;;;;;;5051682;28;20513;-66
2023/04/19 09:07:22;;;;;;;9.98;2.13;;;;;;;;;;5052118;28;20025;-66
2023/04/19 09:10:03;;;;;;;7.85;2.30;;;;;;;;;;5051984;28;20063;-66
2023/04/19 09:12:30;;;;;;;5.82;1.50;;;;;;;;;;5051833;28;20051;-66
2023/04/19 09:14:56;;;;;;;1.67;1.25;;;;;;;;;;5051951;28;20025;-66
2023/04/19 09:17:22;;;;;;;4.93;1.50;;;;;;;;;;5051563;28;20061;-66
2023/04/19 09:19:49;;;;;;;2.28;1.17;;;;;;;;;;5051691;28;20033;-66
2023/04/19 09:22:16;;;;;;;3.88;1.25;;;;;;;;;;5049809;28;20044;-66
2023/04/19 09:24:42;;;;;;;2.75;1.40;;;;;;;;;;5050556;28;20031;-66
2023/04/19 09:27:12;;;;;;;1.17;0.90;;;;;;;;;;5051268;28;20025;-66
2023/04/19 09:29:38;;;;;;;1.48;1.25;;;;;;;;;;5050515;28;20045;-66
2023/04/19 09:32:05;;;;;;;1.40;1.20;;;;;;;;;;5050202;28;20045;-66
2023/04/19 09:34:31;;;;;;;1.10;1.10;;;;;;;;;;5051832;28;20017;-66
2023/04/19 09:36:57;;;;;;;4.07;1.35;;;;;;;;;;5051248;28;20036;-66
2023/04/19 09:39:35;;;;;;;0.90;0.90;;;;;;;;;;5054464;28;20036;-65
2023/04/19 09:42:01;;;;;;;1.38;1.08;;;;;;;;;;5050968;28;20044;-66
2023/04/19 09:44:28;;;;;;;1.40;1.30;;;;;;;;;;5051161;28;20029;-66
2023/04/19 09:46:54;;;;;;;1.30;1.20;;;;;;;;;;5049757;28;20482;-66
2023/04/19 09:49:22;;;;;;;2.97;1.05;;;;;;;;;;5051246;28;20031;-66
2023/04/19 09:51:53;;;;;;;1.70;1.20;;;;;;;;;;5050865;28;20026;-66
2023/04/19 09:54:21;;;;;;;1.23;1.00;;;;;;;;;;5050264;28;20037;-65
2023/04/19 09:56:48;;;;;;;2.70;1.30;;;;;;;;;;5051312;28;20021;-65
2023/04/19 09:59:14;;;;;;;2.50;1.10;;;;;;;;;;5051272;28;20025;-65
2023/04/19 10:01:45;;;;;;;0.90;0.90;;;;;;;;;;5050698;28;20029;-65
2023/04/19 10:04:12;;;;;;;1.95;1.05;;;;;;;;;;5051265;28;20363;-65
2023/04/19 10:06:42;;;;;;;1.20;1.20;;;;;;;;;;5050396;28;20035;-65
2023/04/19 10:09:09;;;;;;;2.20;1.30;;;;;;;;;;5050815;28;20498;-65
2023/04/19 10:11:39;;;;;;;1.77;1.10;;;;;;;;;;5052749;28;20029;-65
2023/04/19 10:14:07;;;;;;;2.17;1.10;;;;;;;;;;5055050;28;20025;-65
2023/04/19 10:16:34;;;;;;;1.02;1.02;;;;;;;;;;5054868;28;20033;-64
2023/04/19 10:19:02;;;;;;;1.40;1.30;;;;;;;;;;5055019;28;20033;-64
2023/04/19 10:21:28;;;;;;;1.08;1.02;;;;;;;;;;5054798;28;20416;-64
2023/04/19 10:23:56;;;;;;;1.75;1.10;;;;;;;;;;5054631;28;20637;-64
2023/04/19 10:26:22;;;;;;;1.10;0.98;;;;;;;;;;5054808;28;20037;-64
2023/04/19 10:28:48;;;;;;;1.15;1.05;;;;;;;;;;5054168;28;20076;-65
2023/04/19 10:31:15;;;;;;;2.10;1.08;;;;;;;;;;5054652;28;20025;-65
2023/04/19 10:33:41;;;;;;;1.65;1.00;;;;;;;;;;5054922;28;20031;-65
2023/04/19 10:36:09;;;;;;;1.50;1.27;;;;;;;;;;5054435;28;20025;-65
2023/04/19 10:38:37;;;;;;;1.58;1.00;;;;;;;;;;5054509;28;20040;-65
2023/04/19 10:41:04;;;;;;;3.45;1.02;;;;;;;;;;5054704;28;20405;-65
2023/04/19 10:43:32;;;;;;;0.98;0.98;;;;;;;;;;5054310;28;20035;-64
2023/04/19 10:46:00;;;;;;;0.90;0.88;;;;;;;;;;5054431;28;20404;-65
2023/04/19 10:48:31;;;;;;;1.10;1.05;;;;;;;;;;5054393;28;20452;-65
2023/04/19 10:51:01;;;;;;;0.93;0.93;;;;;;;;;;5054821;28;20020;-65
2023/04/19 10:53:44;;;;;;;0.77;0.77;;;;;;;;;;5054194;28;20032;-65
2023/04/19 10:56:10;;;;;;;2.47;0.98;;;;;;;;;;5054125;28;20041;-65
2023/04/19 10:58:55;;;;;;;1.00;0.88;;;;;;;;;;5053893;28;20052;-65
2023/04/19 11:01:38;;;;;;;1.15;1.00;;;;;;;;;;5052775;28;20045;-64
2023/04/19 11:04:05;;;;;;;2.22;1.00;;;;;;;;;;5054436;28;20033;-64
2023/04/19 11:06:32;;;;;;;1.23;1.10;;;;;;;;;;5054240;28;20021;-64
2023/04/19 11:08:59;;;;;;;0.95;0.95;;;;;;;;;;5054223;28;20031;-64
2023/04/19 11:11:26;;;;;;;1.20;1.10;;;;;;;;;;5054013;28;20387;-65
2023/04/19 11:13:56;;;;;;;1.55;1.13;;;;;;;;;;5053940;28;20025;-64
2023/04/19 11:16:23;;;;;;;1.10;1.00;;;;;;;;;;5053910;28;20013;-64
2023/04/19 11:18:49;;;;;;;2.05;1.00;;;;;;;;;;5054056;28;20042;-65
2023/04/19 11:21:18;;;;;;;1.02;0.93;;;;;;;;;;5053869;28;20035;-64
2023/04/19 11:23:48;;;;;;;1.73;1.10;;;;;;;;;;5053523;28;20021;-64
2023/04/19 11:26:14;;;;;;;2.05;1.13;;;;;;;;;;5053817;28;20073;-64
2023/04/19 11:28:41;;;;;;;0.90;0.90;;;;;;;;;;5053411;28;20409;-64
2023/04/19 11:31:07;;;;;;;2.53;1.00;;;;;;;;;;5054069;28;20032;-64
2023/04/19 11:33:34;;;;;;;1.88;1.30;;;;;;;;;;5053528;28;20032;-64
2023/04/19 11:36:00;;;;;;;1.30;1.20;;;;;;;;;;5053302;28;20021;-67
2023/04/19 11:38:27;;;;;;;1.08;0.70;;;;;;;;;;5053606;28;20025;-64
2023/04/19 11:41:00;;;;;;;1.20;0.90;;;;;;;;;;5053453;28;20474;-64
2023/04/19 11:43:33;;;;;;;1.33;1.10;;;;;;;;;;5053180;28;20100;-64
2023/04/19 11:46:06;;;;;;;1.20;1.10;;;;;;;;;;5051353;28;20028;-64
2023/04/19 11:48:33;;;;;;;1.08;1.08;;;;;;;;;;5036651;28;20035;-65
2023/04/19 11:51:00;;;;;;;1.15;1.00;;;;;;;;;;5050426;28;20025;-64
2023/04/19 11:53:27;;;;;;;1.10;1.00;;;;;;;;;;5041701;28;20028;-64
2023/04/19 11:55:53;;;;;;;1.17;0.98;;;;;;;;;;5034919;28;20040;-64
2023/04/19 11:58:38;;;;;;;1.77;0.90;;;;;;;;;;5033022;28;20433;-64
2023/04/19 12:01:07;;;;;;;2.85;0.90;;;;;;;;;;5047367;28;20037;-67
2023/04/19 12:03:34;;;;;;;1.13;0.80;;;;;;;;;;5053162;28;20021;-66
2023/04/19 12:06:07;;;;;;;2.65;1.20;;;;;;;;;;5053157;28;20025;-66
2023/04/19 12:08:35;;;;;;;1.50;1.10;;;;;;;;;;5052904;28;20381;-66
2023/04/19 12:11:02;;;;;;;1.17;1.08;;;;;;;;;;5052774;28;20021;-66
2023/04/19 12:13:30;;;;;;;1.30;1.15;;;;;;;;;;5052834;28;20035;-66
2023/04/19 12:15:56;;;;;;;1.25;1.00;;;;;;;;;;5053282;28;20029;-67
2023/04/19 12:18:23;;;;;;;1.33;1.00;;;;;;;;;;5052965;28;20401;-66
2023/04/19 12:20:51;;;;;;;1.52;1.00;;;;;;;;;;5051408;28;20044;-65
2023/04/19 12:23:18;;;;;;;1.13;1.10;;;;;;;;;;5052895;28;20025;-66
2023/04/19 12:25:45;;;;;;;1.40;1.20;;;;;;;;;;5053071;28;20021;-66
2023/04/19 12:28:12;;;;;;;1.83;1.15;;;;;;;;;;5052152;28;20021;-67
2023/04/19 12:30:39;;;;;;;2.38;1.05;;;;;;;;;;5052044;28;20029;-66
2023/04/19 12:33:08;;;;;;;1.95;1.40;;;;;;;;;;5052331;28;20494;-67
2023/04/19 12:35:36;;;;;;;1.00;1.00;;;;;;;;;;5051783;28;20025;-66
2023/04/19 12:38:02;;;;;;;1.40;1.10;;;;;;;;;;5052113;28;20036;-66
2023/04/19 12:40:29;;;;;;;2.90;1.10;;;;;;;;;;5051950;28;20063;-66
2023/04/19 12:42:55;;;;;;;1.95;1.10;;;;;;;;;;5052380;28;20047;-66
2023/04/19 12:45:22;;;;;;;3.28;1.08;;;;;;;;;;5051255;28;20028;-66
2023/04/19 12:47:48;;;;;;;1.35;1.10;;;;;;;;;;5052224;28;20023;-66
2023/04/19 12:50:15;;;;;;;1.33;1.00;;;;;;;;;;5052400;28;20047;-66
2023/04/19 12:52:42;;;;;;;2.22;1.23;;;;;;;;;;5051898;28;20029;-66
2023/04/19 12:55:08;;;;;;;2.50;1.20;;;;;;;;;;5052106;28;20029;-67
2023/04/19 12:57:35;;;;;;;2.47;1.17;;;;;;;;;;5051911;28;20058;-66
2023/04/19 13:00:02;;;;;;;1.85;1.23;;;;;;;;;;5051766;28;20389;-65
2023/04/19 13:02:29;;;;;;;1.23;0.95;;;;;;;;;;5051995;28;20404;-66
2023/04/19 13:04:55;;;;;;;2.42;0.90;;;;;;;;;;5050703;28;20013;-66
2023/04/19 13:07:22;;;;;;;5.57;0.90;;;;;;;;;;5051567;28;20031;-66
2023/04/19 13:09:48;;;;;;;1.58;1.08;;;;;;;;;;5050879;28;20021;-66
2023/04/19 13:12:14;;;;;;;0.82;0.80;;;;;;;;;;5051347;28;20017;-66
2023/04/19 13:14:41;;;;;;;2.92;1.23;;;;;;;;;;5051726;28;20031;-66
2023/04/19 13:17:07;;;;;;;1.15;0.90;;;;;;;;;;5051645;28;20029;-66
2023/04/19 13:19:33;;;;;;;1.73;0.93;;;;;;;;;;5051769;28;20043;-66
2023/04/19 13:22:00;;;;;;;4.38;1.10;;;;;;;;;;5051750;28;20027;-66
2023/04/19 13:24:26;;;;;;;6.28;1.40;;;;;;;;;;5050222;28;20401;-66
2023/04/19 13:26:52;;;;;;;1.45;1.00;;;;;;;;;;5051799;28;20389;-66
2023/04/19 13:29:19;;;;;;;1.50;1.00;;;;;;;;;;5049095;28;20057;-66
2023/04/19 13:31:45;;;;;;;1.67;1.10;;;;;;;;;;5051512;28;20040;-65
2023/04/19 13:34:12;;;;;;;1.52;1.10;;;;;;;;;;5051416;28;20037;-66
2023/04/19 13:36:39;;;;;;;2.33;1.20;;;;;;;;;;5051355;28;20024;-65
2023/04/19 13:39:06;;;;;;;1.25;1.15;;;;;;;;;;5051763;28;20374;-66
2023/04/19 13:41:32;;;;;;;1.77;1.25;;;;;;;;;;5051397;28;20032;-66
2023/04/19 13:43:59;;;;;;;1.75;1.10;;;;;;;;;;5051784;28;20033;-66
2023/04/19 13:46:25;;;;;;;2.30;1.00;;;;;;;;;;5054722;28;20355;-66
2023/04/19 13:48:51;;;;;;;1.20;1.10;;;;;;;;;;5055914;28;20095;-66
2023/04/19 13:51:18;;;;;;;1.25;1.10;;;;;;;;;;5056223;28;20024;-66
2023/04/19 13:53:44;;;;;;;1.20;1.10;;;;;;;;;;5055473;28;20027;-66
2023/04/19 13:56:10;;;;;;;1.00;1.00;;;;;;;;;;5055865;28;20017;-65
2023/04/19 13:58:37;;;;;;;2.25;1.02;;;;;;;;;;5056066;28;20029;-66
2023/04/19 14:01:03;;;;;;;1.13;1.02;;;;;;;;;;5055567;28;20033;-66
2023/04/19 14:03:30;;;;;;;1.45;0.95;;;;;;;;;;5055728;28;20033;-66
2023/04/19 14:05:57;;;;;;;1.98;1.00;;;;;;;;;;5055724;28;20029;-66
2023/04/19 14:08:23;;;;;;;1.30;0.90;;;;;;;;;;5055273;28;20028;-66
2023/04/19 14:10:50;;;;;;;1.08;0.98;;;;;;;;;;5054297;28;20029;-65
2023/04/19 14:13:16;;;;;;;1.63;0.70;;;;;;;;;;5054188;28;20035;-66
2023/04/19 14:15:42;;;;;;;3.05;1.08;;;;;;;;;;5055514;28;20501;-66
2023/04/19 14:18:09;;;;;;;4.38;1.30;;;;;;;;;;5055339;28;20035;-66
2023/04/19 14:20:35;;;;;;;1.63;1.20;;;;;;;;;;5055203;28;20520;-66
2023/04/19 14:23:02;;;;;;;1.23;1.10;;;;;;;;;;5055239;28;20025;-65
2023/04/19 14:25:28;;;;;;;2.05;1.20;;;;;;;;;;5055373;28;20040;-66
2023/04/19 14:27:55;;;;;;;1.20;1.00;;;;;;;;;;5055494;28;20029;-66
2023/04/19 14:30:21;;;;;;;3.35;1.13;;;;;;;;;;5055125;28;20044;-66
2023/04/19 14:32:47;;;;;;;1.08;0.90;;;;;;;;;;5055272;28;20033;-66
2023/04/19 14:35:14;;;;;;;2.15;1.00;;;;;;;;;;5054855;28;20432;-66
2023/04/19 14:37:40;;;;;;;2.58;1.05;;;;;;;;;;5055433;28;20021;-65
2023/04/19 14:40:07;;;;;;;3.65;1.35;;;;;;;;;;5054719;28;20039;-65
2023/04/19 14:42:33;;;;;;;1.73;1.20;;;;;;;;;;5054981;28;20021;-66